Terminal Aerodrome Forecast
Issued by NWS Jacksonville, FL

Home | Current Version | Previous Version | Text Only | Print | Product List | Glossary On
Versions: 1 2 3 4 5 6 7 8 9 10 11 12 13 14 15 16 17 18 19 20 21 22 23 24 25 26 27 28 29 30 31 32 33 34 35 36 37 38 39 40 41 42 43
000
FTUS42 KJAX 261500 AAC
TAFSSI
TAF AMD
KSSI 261512Z 2615/2712 29010G18KT P6SM BKN015 OVC050
      TEMPO 2615/2617 BKN009
     FM261800 29011G18KT P6SM SCT025 SCT250
     FM262300 27007KT P6SM SKC=

USA.gov is the U.S. government's official web portal to all federal, state and local government web resources and services.